Date,TemperatureHighF,TemperatureAvgF,TemperatureLowF,DewpointHighF,DewpointAvgF,DewpointLowF,HumidityHigh,HumidityAvg,HumidityLow,PressureMaxIn,PressureMinIn,WindSpeedMaxMPH,WindSpeedAvgMPH,GustSpeedMaxMPH,PrecipitationSumIn
2013-1-9,26.2,17.7,12.2,23.0,13.8,8.5,91,85,76,30.32,29.89,4,2,8,0.00
2013-1-10,21.7,11.9,-0.8,18.0,6.7,-4.7,90,80,72,30.20,29.96,2,0,7,0.00
2013-1-11,14.9,8.6,-1.7,10.7,2.7,-5.6,84,77,68,30.22,30.08,3,1,5,0.00
2013-1-12,22.6,19.8,15.1,16.9,14.1,10.8,86,78,71,30.12,30.01,3,1,6,0.00
2013-1-13,26.8,18.0,9.1,19.9,13.2,5.7,87,81,75,30.15,30.00,6,2,11,0.00
2013-1-14,25.5,15.5,5.9,18.4,8.1,1.2,87,72,58,30.40,29.99,4,1,11,0.90
2013-1-15,30.4,20.9,14.9,15.3,12.0,8.9,77,69,53,30.39,30.01,5,1,11,0.91
2013-1-16,31.5,25.4,18.1,27.0,18.4,11.2,86,75,62,30.08,29.69,8,2,16,0.00
2013-1-17,22.5,14.7,8.1,12.5,4.7,0.6,75,64,48,30.38,30.08,4,1,14,0.00
2013-1-18,39.0,25.1,7.5,31.0,18.9,1.8,88,77,69,30.39,29.76,8,2,18,0.04
2013-1-19,33.8,33.0,31.8,29.8,29.0,28.3,87,85,84,29.82,29.77,3,1,4,0.00
2013-1-20,31.6,7.0,5.0,28.2,-4.2,-5.4,87,59,56,30.21,29.81,4,1,8,0.01
2013-1-21,5.0,-2.0,-8.1,-4.4,-12.4,-17.9,74,60,50,30.25,30.09,6,2,21,0.00
2013-1-22,2.7,-3.9,-9.4,-10.8,-14.1,-18.0,68,60,49,30.31,30.23,6,1,13,0.00
2013-1-23,13.6,1.7,-1.1,7.7,-7.0,-10.8,84,66,62,30.41,30.10,4,0,11,0.00
2013-1-24,12.0,3.0,-2.7,1.9,-4.9,-9.1,74,69,58,30.63,30.40,3,1,7,0.00
2013-1-25,19.2,15.6,10.9,14.7,9.8,1.9,88,78,63,30.44,29.99,6,1,10,0.00
2013-1-26,10.9,8.8,6.4,5.9,4.1,1.9,82,80,80,30.24,30.16,3,1,7,0.00
2013-1-29,36.1,34.7,33.4,35.9,34.5,33.1,99,99,98,29.54,29.51,8,3,8,0.05
2013-1-30,33.4,26.3,14.7,33.2,25.2,12.1,99,95,89,29.54,29.31,6,0,8,0.01
2013-1-31,36.0,9.7,0.7,35.7,4.8,-4.4,99,80,71,30.14,29.52,2,0,3,0.96
2013-2-1,4.3,-1.0,-6.3,-1.7,-7.1,-11.6,81,74,63,30.31,30.13,0,0,0,0.00
2013-2-2,3.0,2.6,2.3,-1.1,-1.6,-2.1,82,82,81,30.19,30.13,0,0,0,0.00
2013-2-3,2.3,2.3,2.3,-2.1,-2.1,-2.1,81,81,81,30.15,30.15,0,0,0,0.00
2013-2-4,18.0,9.8,5.5,5.9,1.6,-1.2,75,69,56,30.08,29.98,4,2,4,0.00
2013-2-5,25.7,15.9,5.0,20.1,10.8,-0.6,87,80,73,30.15,29.80,10,3,10,0.00
2013-2-6,26.8,16.0,2.7,25.3,11.8,-0.6,94,84,63,30.29,30.15,5,2,5,0.00
2013-2-7,30.9,25.9,19.8,29.9,24.6,18.1,97,95,91,30.18,30.05,8,3,8,0.00
2013-2-8,25.3,16.4,7.7,19.5,11.0,5.0,93,79,66,30.45,30.18,14,1,14,0.00
2013-2-9,8.1,7.5,6.6,5.6,4.8,3.9,89,88,88,30.44,30.43,2,0,2,0.00
2013-2-10,6.6,6.6,6.6,3.9,3.9,3.9,88,88,88,30.44,30.44,0,0,0,0.00
2013-9-4,60.4,60.4,60.4,58.7,58.7,58.7,94,94,94,30.26,30.26,1,1,1,0.00
2013-9-5,74.3,62.1,52.0,58.9,51.4,46.2,96,69,46,30.40,30.26,6,1,6,0.00
2013-9-6,84.6,66.1,53.4,68.8,57.2,48.1,88,74,58,30.33,30.07,4,1,4,0.00
2013-9-7,69.6,68.0,66.9,67.7,66.7,65.7,96,96,93,30.01,30.00,2,0,2,0.00
2013-9-8,75.7,69.5,63.9,60.2,58.5,56.5,83,69,57,30.22,30.08,9,2,9,0.15
2013-9-9,87.1,75.5,63.5,76.6,69.7,59.3,98,83,68,30.09,29.82,5,1,5,0.01
2013-9-10,95.0,76.5,69.6,72.7,69.4,66.9,98,80,41,30.09,29.85,6,0,6,0.37
2013-9-11,71.4,69.8,67.1,69.1,67.8,66.8,99,93,87,30.13,30.06,0,0,0,0.00
2013-11-21,41.5,38.5,34.0,38.9,36.7,33.0,97,93,87,30.30,30.14,2,0,2,0.01
2013-11-22,35.2,29.4,24.1,32.7,22.7,14.3,98,77,60,30.47,30.30,5,0,5,0.01
2013-11-23,23.5,15.6,9.1,15.2,4.6,0.9,74,62,48,30.70,30.40,8,2,8,0.00
2013-11-24,23.4,16.9,6.6,8.8,4.9,1.2,80,60,44,30.67,30.13,12,2,12,0.00
2013-11-25,32.5,28.2,23.0,27.0,21.3,8.5,86,76,51,30.13,29.95,13,4,13,0.00
2013-11-26,32.5,23.9,11.3,26.7,14.0,5.0,88,67,46,30.22,29.98,7,2,7,0.00
2013-11-27,26.8,21.2,10.4,19.1,12.8,5.5,90,71,54,30.25,30.19,6,0,6,0.00
2013-11-28,25.3,21.0,13.1,19.1,16.7,10.3,91,83,74,30.50,30.17,2,0,2,0.00
2013-11-29,28.4,19.8,9.5,23.8,15.4,7.7,93,83,71,30.63,30.38,4,0,4,0.00
2013-11-30,37.2,33.2,32.2,29.7,28.7,27.9,86,83,74,30.11,30.04,2,0,2,0.02
2013-12-1,38.8,32.3,27.5,31.8,27.6,24.2,90,83,73,30.17,30.01,4,0,97,0.00
2013-12-2,37.8,31.1,21.7,31.2,26.9,20.6,98,85,70,30.02,29.83,8,1,8,0.00
2013-12-3,34.3,32.4,32.0,32.7,32.0,31.4,99,98,89,29.85,29.80,8,0,8,0.06
2013-12-4,46.4,36.5,32.2,46.1,36.3,31.9,99,99,94,29.84,29.43,11,0,11,0.15
2013-12-5,36.5,20.6,8.8,34.9,13.1,2.3,94,72,58,30.25,29.56,12,0,12,0.00
2013-12-6,14.4,6.5,2.3,4.1,0.0,-2.6,81,74,61,30.53,30.25,0,0,0,0.00
2013-12-7,11.1,3.7,-2.6,0.6,-3.7,-7.1,80,71,58,30.67,30.52,0,0,0,0.00
2013-12-8,13.5,8.6,2.7,11.4,4.8,-4.5,92,84,69,30.60,29.99,4,0,4,0.00
2013-12-9,17.4,9.3,-2.4,11.6,4.4,-7.7,93,80,66,30.14,29.91,14,1,14,0.00
2013-12-10,14.4,5.6,-3.5,7.2,-0.4,-7.9,86,76,63,30.22,29.86,14,1,14,0.00
2013-12-11,8.4,1.4,-4.7,4.8,-6.7,-12.1,85,68,53,30.48,30.21,8,1,8,0.00
2013-12-12,18.0,9.3,-4.0,12.1,3.1,-10.3,86,76,64,30.44,30.16,7,0,9,0.00
2013-12-13,18.0,15.0,13.5,12.4,9.0,4.8,89,77,65,30.31,30.15,11,2,11,0.00
2013-12-14,22.1,16.5,12.7,19.2,14.4,10.4,94,91,86,30.29,29.91,7,1,7,0.00
2013-12-15,16.9,5.4,-3.8,15.5,-0.7,-9.7,94,75,61,30.11,29.89,10,1,10,0.00
2013-12-16,15.4,3.2,-7.2,11.7,-0.8,-11.2,93,83,76,30.33,29.82,5,0,5,0.00
2013-12-17,30.7,20.8,12.4,21.5,15.9,9.7,95,82,67,30.00,29.73,10,1,10,0.00
2013-12-18,27.9,19.7,7.3,21.1,12.6,2.7,84,74,62,30.06,29.69,5,0,7,0.00
2013-12-19,27.1,22.1,17.6,22.1,18.5,15.7,93,86,80,30.04,29.74,13,2,13,0.00
2013-12-20,19.2,18.7,18.5,18.3,17.3,17.0,96,94,92,29.95,29.90,11,1,11,0.00
2013-12-27,30.6,29.3,27.7,27.4,26.6,25.4,91,89,88,29.97,29.94,0,0,1,0.00
2013-12-28,40.1,29.5,17.8,33.0,27.0,17.1,99,91,74,29.99,29.70,2,0,2,0.04
2013-12-29,35.4,16.9,-3.3,31.9,10.6,-9.3,97,76,62,30.18,29.68,11,2,11,0.00
2013-12-30,0.0,-4.4,-12.3,-5.0,-10.8,-16.3,82,73,60,30.29,30.13,12,0,12,0.00
2013-12-31,6.6,0.5,-7.6,-1.5,-5.8,-13.8,82,74,64,30.37,30.11,7,0,7,0.00
2014-1-1,3.2,-3.9,-8.3,-5.0,-10.2,-14.2,76,73,67,30.41,30.32,7,1,7,0.00
2014-1-2,8.1,0.3,-5.3,-2.8,-7.6,-11.0,75,68,59,30.40,30.32,2,0,2,0.00